Accueil
METAR-TAF:

METAR-TAF

Aéroports :

Aéroport international de Cần Thơ

Cần Thơ, Viêtnam

latitude: 10-05-07N, longitude: 105-42-43E, altitude: 3 m

Observation

Le bulletin a été fait il y a 21 minutes, à 01:30 UTC
Vent 8 kt de nord/nord-est, variant entre nord/nord-ouest et est/nord-est
Température 25°C
Humidité 79%
Pression 1017 hPa
Visibilité 10 km ou plus
pas de nuages en-dessous de 1500 mètres et pas de cumulonimbus.

METAR: VVCT 220130Z 03008KT 330V060 CAVOK 25/21 Q1017 NOSIG

Heure: 08:51 (01:51 UTC)

Prévision

Le bulletin a été fait il y a 2 heures et 51 minutes, à 23:00 UTC
Prévision valable du 22 à 00 UTC au 22 à 24 UTC
Vent 8 kt de est/nord-est
Visibilité 10 km ou plus
Nuages épars à une hauteur de 1500 ft

TAF: VVCT 212300Z 2200/2224 06008KT 9999 SCT015

Observations et prévisions météorologiques de plus de 4000 aéroports (messages METAR et TAF).

Les stations disponibles sont représentées par des disques jaunes et rouges sur la carte.

Passer la souris dessus pour voir le nom de la station.

Cliquer dessus pour voir les observations et prévisions météorologiques.

Pour changer de carte: cliquez sur les boutons verts avec une croix noire pour zoomer, sur le bouton vert avec un tiret pour effectuer un zoom arrière, ou sur les flèches vertes pour les cartes adjacentes.


METAR-TAF: